Baileyville, Texas
Current Conditions -  °F | °C
As of 11:55 AM on Saturday 20 Dec 2014 (Local Time) from KT35 Reporting Station
Overcast Overcast  
Wind Chill: 51°   Ceiling: 1000
Heat Index: 51°   Visibility: 7mi
Dew Point: 47°   Wind: 8mph
Humidity: 88%   Direction: 360°N
Pressure: 30.23"   Gusts: NA
Location:  31.0981°N, 96.99°W
Report Text: KT35 201755Z AUTO 36007KT 7SM BKN010 BKN013 OVC018 11/09 A3023 RMK AO2 T01050086 10107 20092
Loading
Personal Weather Stations






























Interactive Weather Map New forecast layout! Learn more

10-Day Weather Forecast

Advertisements
Track Severe Weather on mobile